sensor_id;sensor_type;location;lat;lon;timestamp;P1;durP1;ratioP1;P2;durP2;ratioP2
27839;SDS011;15207;42.182;24.308;2023-06-01T00:01:58;7.45;;;4.60;;
27839;SDS011;15207;42.182;24.308;2023-06-01T00:04:24;8.75;;;4.35;;
27839;SDS011;15207;42.182;24.308;2023-06-01T00:06:50;6.78;;;4.10;;
27839;SDS011;15207;42.182;24.308;2023-06-01T00:09:15;7.50;;;4.10;;
27839;SDS011;15207;42.182;24.308;2023-06-01T00:11:42;6.97;;;4.57;;
27839;SDS011;15207;42.182;24.308;2023-06-01T00:14:08;9.25;;;4.50;;
27839;SDS011;15207;42.182;24.308;2023-06-01T00:16:34;10.15;;;4.80;;
27839;SDS011;15207;42.182;24.308;2023-06-01T00:18:59;8.90;;;4.90;;
27839;SDS011;15207;42.182;24.308;2023-06-01T00:21:28;8.30;;;4.80;;
27839;SDS011;15207;42.182;24.308;2023-06-01T00:23:56;7.80;;;5.40;;
27839;SDS011;15207;42.182;24.308;2023-06-01T00:26:22;8.80;;;5.50;;
27839;SDS011;15207;42.182;24.308;2023-06-01T00:28:48;8.15;;;5.40;;
27839;SDS011;15207;42.182;24.308;2023-06-01T00:31:15;7.70;;;5.00;;
27839;SDS011;15207;42.182;24.308;2023-06-01T00:33:40;8.40;;;4.90;;
27839;SDS011;15207;42.182;24.308;2023-06-01T00:36:06;7.65;;;5.35;;
27839;SDS011;15207;42.182;24.308;2023-06-01T00:38:32;10.63;;;5.95;;
27839;SDS011;15207;42.182;24.308;2023-06-01T00:40:58;8.30;;;5.20;;
27839;SDS011;15207;42.182;24.308;2023-06-01T00:43:23;14.40;;;6.20;;
27839;SDS011;15207;42.182;24.308;2023-06-01T00:45:49;8.57;;;5.33;;
27839;SDS011;15207;42.182;24.308;2023-06-01T00:48:14;9.32;;;5.07;;
27839;SDS011;15207;42.182;24.308;2023-06-01T00:50:41;10.68;;;5.70;;
27839;SDS011;15207;42.182;24.308;2023-06-01T00:53:11;9.60;;;5.35;;
27839;SDS011;15207;42.182;24.308;2023-06-01T00:55:42;8.45;;;4.95;;
27839;SDS011;15207;42.182;24.308;2023-06-01T00:58:08;8.20;;;5.20;;
27839;SDS011;15207;42.182;24.308;2023-06-01T01:00:33;8.95;;;4.90;;
27839;SDS011;15207;42.182;24.308;2023-06-01T01:03:00;10.63;;;5.27;;
27839;SDS011;15207;42.182;24.308;2023-06-01T01:05:32;8.25;;;5.43;;
27839;SDS011;15207;42.182;24.308;2023-06-01T01:11:01;13.27;;;5.03;;
27839;SDS011;15207;42.182;24.308;2023-06-01T01:18:50;9.25;;;5.85;;
27839;SDS011;15207;42.182;24.308;2023-06-01T01:21:24;14.20;;;5.60;;
27839;SDS011;15207;42.182;24.308;2023-06-01T01:26:52;11.75;;;6.25;;
27839;SDS011;15207;42.182;24.308;2023-06-01T01:29:36;6.03;;;4.53;;
27839;SDS011;15207;42.182;24.308;2023-06-01T01:32:04;10.70;;;5.40;;
27839;SDS011;15207;42.182;24.308;2023-06-01T01:34:31;7.85;;;5.20;;
27839;SDS011;15207;42.182;24.308;2023-06-01T01:36:58;7.57;;;4.53;;
27839;SDS011;15207;42.182;24.308;2023-06-01T01:39:24;8.70;;;4.50;;
27839;SDS011;15207;42.182;24.308;2023-06-01T01:41:49;7.93;;;4.93;;
27839;SDS011;15207;42.182;24.308;2023-06-01T01:44:15;7.80;;;5.30;;
27839;SDS011;15207;42.182;24.308;2023-06-01T01:46:44;8.50;;;4.80;;
27839;SDS011;15207;42.182;24.308;2023-06-01T01:49:20;8.90;;;5.40;;
27839;SDS011;15207;42.182;24.308;2023-06-01T01:54:26;11.82;;;5.30;;
27839;SDS011;15207;42.182;24.308;2023-06-01T01:56:53;8.00;;;5.05;;
27839;SDS011;15207;42.182;24.308;2023-06-01T01:59:22;10.17;;;5.17;;
27839;SDS011;15207;42.182;24.308;2023-06-01T02:01:49;6.50;;;4.50;;
27839;SDS011;15207;42.182;24.308;2023-06-01T02:04:15;9.30;;;5.23;;
27839;SDS011;15207;42.182;24.308;2023-06-01T02:06:41;9.20;;;4.93;;
27839;SDS011;15207;42.182;24.308;2023-06-01T02:09:06;7.50;;;4.50;;
27839;SDS011;15207;42.182;24.308;2023-06-01T02:11:33;10.50;;;5.10;;
27839;SDS011;15207;42.182;24.308;2023-06-01T02:13:59;14.27;;;5.27;;
27839;SDS011;15207;42.182;24.308;2023-06-01T02:16:25;10.70;;;5.30;;
27839;SDS011;15207;42.182;24.308;2023-06-01T02:18:51;11.65;;;6.10;;
27839;SDS011;15207;42.182;24.308;2023-06-01T02:21:17;9.83;;;5.17;;
27839;SDS011;15207;42.182;24.308;2023-06-01T02:23:42;8.88;;;4.88;;
27839;SDS011;15207;42.182;24.308;2023-06-01T02:26:08;7.68;;;4.85;;
27839;SDS011;15207;42.182;24.308;2023-06-01T02:28:38;11.05;;;5.03;;
27839;SDS011;15207;42.182;24.308;2023-06-01T02:33:30;7.45;;;4.70;;
27839;SDS011;15207;42.182;24.308;2023-06-01T02:35:56;11.00;;;4.40;;
27839;SDS011;15207;42.182;24.308;2023-06-01T02:38:21;9.40;;;4.45;;
27839;SDS011;15207;42.182;24.308;2023-06-01T02:40:48;11.00;;;4.90;;
27839;SDS011;15207;42.182;24.308;2023-06-01T02:43:19;6.60;;;4.45;;
27839;SDS011;15207;42.182;24.308;2023-06-01T02:45:45;7.78;;;5.43;;
27839;SDS011;15207;42.182;24.308;2023-06-01T02:48:11;8.05;;;5.25;;
27839;SDS011;15207;42.182;24.308;2023-06-01T02:50:38;9.35;;;4.95;;
27839;SDS011;15207;42.182;24.308;2023-06-01T02:53:03;11.23;;;5.43;;
27839;SDS011;15207;42.182;24.308;2023-06-01T02:55:30;7.25;;;4.90;;
27839;SDS011;15207;42.182;24.308;2023-06-01T02:57:56;8.65;;;5.05;;
27839;SDS011;15207;42.182;24.308;2023-06-01T03:00:24;11.35;;;5.35;;
27839;SDS011;15207;42.182;24.308;2023-06-01T03:02:50;7.55;;;5.30;;
27839;SDS011;15207;42.182;24.308;2023-06-01T03:05:18;9.10;;;4.80;;
27839;SDS011;15207;42.182;24.308;2023-06-01T03:07:46;8.17;;;5.33;;
27839;SDS011;15207;42.182;24.308;2023-06-01T03:10:12;9.10;;;5.30;;
27839;SDS011;15207;42.182;24.308;2023-06-01T03:12:38;10.30;;;5.70;;
27839;SDS011;15207;42.182;24.308;2023-06-01T03:15:05;9.50;;;5.90;;
27839;SDS011;15207;42.182;24.308;2023-06-01T03:17:31;11.10;;;5.60;;
27839;SDS011;15207;42.182;24.308;2023-06-01T03:19:58;8.55;;;5.10;;
27839;SDS011;15207;42.182;24.308;2023-06-01T03:22:25;8.90;;;5.40;;
27839;SDS011;15207;42.182;24.308;2023-06-01T03:24:51;9.40;;;4.80;;
27839;SDS011;15207;42.182;24.308;2023-06-01T03:27:19;14.30;;;5.60;;
27839;SDS011;15207;42.182;24.308;2023-06-01T03:29:45;19.05;;;6.85;;
27839;SDS011;15207;42.182;24.308;2023-06-01T03:32:11;8.55;;;5.55;;
27839;SDS011;15207;42.182;24.308;2023-06-01T03:34:38;13.90;;;5.00;;
27839;SDS011;15207;42.182;24.308;2023-06-01T03:37:06;11.90;;;6.40;;
27839;SDS011;15207;42.182;24.308;2023-06-01T03:39:33;12.90;;;5.70;;
27839;SDS011;15207;42.182;24.308;2023-06-01T03:42:00;11.83;;;6.10;;
27839;SDS011;15207;42.182;24.308;2023-06-01T03:44:25;12.23;;;6.07;;
27839;SDS011;15207;42.182;24.308;2023-06-01T03:46:51;10.40;;;5.70;;
27839;SDS011;15207;42.182;24.308;2023-06-01T03:49:17;11.90;;;5.85;;
27839;SDS011;15207;42.182;24.308;2023-06-01T03:51:43;10.65;;;6.60;;
27839;SDS011;15207;42.182;24.308;2023-06-01T03:54:10;9.97;;;6.30;;
27839;SDS011;15207;42.182;24.308;2023-06-01T03:56:36;11.15;;;6.00;;
27839;SDS011;15207;42.182;24.308;2023-06-01T03:59:01;11.70;;;6.10;;
27839;SDS011;15207;42.182;24.308;2023-06-01T04:01:27;9.05;;;5.60;;
27839;SDS011;15207;42.182;24.308;2023-06-01T04:03:57;10.65;;;6.45;;
27839;SDS011;15207;42.182;24.308;2023-06-01T04:06:23;12.95;;;5.75;;
27839;SDS011;15207;42.182;24.308;2023-06-01T04:08:52;9.75;;;5.70;;
27839;SDS011;15207;42.182;24.308;2023-06-01T04:11:21;9.10;;;5.45;;
27839;SDS011;15207;42.182;24.308;2023-06-01T04:13:51;10.80;;;5.70;;
27839;SDS011;15207;42.182;24.308;2023-06-01T04:16:17;8.40;;;4.60;;
27839;SDS011;15207;42.182;24.308;2023-06-01T04:18:44;10.35;;;5.45;;
27839;SDS011;15207;42.182;24.308;2023-06-01T04:21:10;7.10;;;5.30;;
27839;SDS011;15207;42.182;24.308;2023-06-01T04:23:37;10.65;;;5.40;;
27839;SDS011;15207;42.182;24.308;2023-06-01T04:26:03;7.85;;;5.25;;
27839;SDS011;15207;42.182;24.308;2023-06-01T04:28:30;9.40;;;5.40;;
27839;SDS011;15207;42.182;24.308;2023-06-01T04:30:58;10.25;;;5.25;;
27839;SDS011;15207;42.182;24.308;2023-06-01T04:33:24;9.70;;;5.10;;
27839;SDS011;15207;42.182;24.308;2023-06-01T04:35:51;9.67;;;4.83;;
27839;SDS011;15207;42.182;24.308;2023-06-01T04:38:19;7.00;;;4.20;;
27839;SDS011;15207;42.182;24.308;2023-06-01T04:40:46;8.00;;;4.60;;
27839;SDS011;15207;42.182;24.308;2023-06-01T04:43:13;8.45;;;5.20;;
27839;SDS011;15207;42.182;24.308;2023-06-01T04:45:44;6.20;;;4.30;;
27839;SDS011;15207;42.182;24.308;2023-06-01T04:48:10;9.00;;;5.20;;
27839;SDS011;15207;42.182;24.308;2023-06-01T04:50:37;6.20;;;4.00;;
27839;SDS011;15207;42.182;24.308;2023-06-01T04:53:03;7.87;;;4.60;;
27839;SDS011;15207;42.182;24.308;2023-06-01T04:55:29;7.15;;;4.40;;
27839;SDS011;15207;42.182;24.308;2023-06-01T04:57:55;9.17;;;4.90;;
27839;SDS011;15207;42.182;24.308;2023-06-01T05:00:22;6.80;;;4.17;;
27839;SDS011;15207;42.182;24.308;2023-06-01T05:02:48;7.07;;;4.22;;
27839;SDS011;15207;42.182;24.308;2023-06-01T05:05:15;7.30;;;4.15;;
27839;SDS011;15207;42.182;24.308;2023-06-01T05:07:41;9.00;;;4.90;;
27839;SDS011;15207;42.182;24.308;2023-06-01T05:10:08;8.67;;;4.40;;
27839;SDS011;15207;42.182;24.308;2023-06-01T05:12:36;6.20;;;4.10;;
27839;SDS011;15207;42.182;24.308;2023-06-01T05:15:04;7.80;;;4.10;;
27839;SDS011;15207;42.182;24.308;2023-06-01T05:17:33;6.40;;;4.00;;
27839;SDS011;15207;42.182;24.308;2023-06-01T05:20:00;9.85;;;4.45;;
27839;SDS011;15207;42.182;24.308;2023-06-01T05:22:26;9.10;;;4.60;;
27839;SDS011;15207;42.182;24.308;2023-06-01T05:24:51;7.85;;;4.40;;
27839;SDS011;15207;42.182;24.308;2023-06-01T05:27:28;11.00;;;5.00;;
27839;SDS011;15207;42.182;24.308;2023-06-01T05:29:53;5.50;;;4.10;;
27839;SDS011;15207;42.182;24.308;2023-06-01T05:32:20;7.20;;;4.75;;
27839;SDS011;15207;42.182;24.308;2023-06-01T05:34:46;8.90;;;4.90;;
27839;SDS011;15207;42.182;24.308;2023-06-01T05:37:13;7.60;;;4.60;;
27839;SDS011;15207;42.182;24.308;2023-06-01T05:39:39;11.60;;;5.60;;
27839;SDS011;15207;42.182;24.308;2023-06-01T05:42:05;7.10;;;4.70;;
27839;SDS011;15207;42.182;24.308;2023-06-01T05:44:32;8.10;;;5.10;;
27839;SDS011;15207;42.182;24.308;2023-06-01T05:46:58;8.75;;;5.03;;
27839;SDS011;15207;42.182;24.308;2023-06-01T05:49:24;7.90;;;4.95;;
27839;SDS011;15207;42.182;24.308;2023-06-01T05:51:50;14.80;;;4.90;;
27839;SDS011;15207;42.182;24.308;2023-06-01T05:54:16;9.50;;;4.80;;
27839;SDS011;15207;42.182;24.308;2023-06-01T05:56:42;6.40;;;4.60;;
27839;SDS011;15207;42.182;24.308;2023-06-01T05:59:09;8.50;;;4.82;;
27839;SDS011;15207;42.182;24.308;2023-06-01T06:01:35;8.05;;;4.55;;
27839;SDS011;15207;42.182;24.308;2023-06-01T06:04:01;9.40;;;5.00;;
27839;SDS011;15207;42.182;24.308;2023-06-01T06:06:27;7.30;;;4.65;;
27839;SDS011;15207;42.182;24.308;2023-06-01T06:08:55;6.88;;;4.53;;
27839;SDS011;15207;42.182;24.308;2023-06-01T06:11:21;7.70;;;4.50;;
27839;SDS011;15207;42.182;24.308;2023-06-01T06:13:50;6.50;;;4.55;;
27839;SDS011;15207;42.182;24.308;2023-06-01T06:16:16;6.55;;;4.45;;
27839;SDS011;15207;42.182;24.308;2023-06-01T06:18:42;7.70;;;4.70;;
27839;SDS011;15207;42.182;24.308;2023-06-01T06:21:07;8.25;;;4.85;;
27839;SDS011;15207;42.182;24.308;2023-06-01T06:23:33;6.95;;;4.50;;
27839;SDS011;15207;42.182;24.308;2023-06-01T06:25:59;6.80;;;4.27;;
27839;SDS011;15207;42.182;24.308;2023-06-01T06:28:24;7.85;;;3.72;;
27839;SDS011;15207;42.182;24.308;2023-06-01T06:30:51;6.70;;;4.30;;
27839;SDS011;15207;42.182;24.308;2023-06-01T06:33:17;8.83;;;4.90;;
27839;SDS011;15207;42.182;24.308;2023-06-01T06:35:45;6.55;;;4.05;;
27839;SDS011;15207;42.182;24.308;2023-06-01T06:38:11;5.60;;;3.70;;
27839;SDS011;15207;42.182;24.308;2023-06-01T06:40:37;8.37;;;4.83;;
27839;SDS011;15207;42.182;24.308;2023-06-01T06:43:02;6.43;;;4.40;;
27839;SDS011;15207;42.182;24.308;2023-06-01T06:45:28;6.80;;;3.72;;
27839;SDS011;15207;42.182;24.308;2023-06-01T06:47:54;5.53;;;3.85;;
27839;SDS011;15207;42.182;24.308;2023-06-01T06:50:21;5.85;;;4.40;;
27839;SDS011;15207;42.182;24.308;2023-06-01T06:52:48;5.80;;;4.10;;
27839;SDS011;15207;42.182;24.308;2023-06-01T06:55:15;8.75;;;3.95;;
27839;SDS011;15207;42.182;24.308;2023-06-01T06:57:40;10.80;;;4.50;;
27839;SDS011;15207;42.182;24.308;2023-06-01T07:00:07;7.30;;;4.60;;
27839;SDS011;15207;42.182;24.308;2023-06-01T07:02:34;6.30;;;4.10;;
27839;SDS011;15207;42.182;24.308;2023-06-01T07:05:00;7.80;;;3.80;;
27839;SDS011;15207;42.182;24.308;2023-06-01T07:07:27;5.10;;;3.28;;
27839;SDS011;15207;42.182;24.308;2023-06-01T07:09:53;7.65;;;4.25;;
27839;SDS011;15207;42.182;24.308;2023-06-01T07:12:19;6.35;;;3.60;;
27839;SDS011;15207;42.182;24.308;2023-06-01T07:14:45;7.27;;;4.20;;
27839;SDS011;15207;42.182;24.308;2023-06-01T07:17:11;5.35;;;3.80;;
27839;SDS011;15207;42.182;24.308;2023-06-01T07:19:36;7.30;;;3.80;;
27839;SDS011;15207;42.182;24.308;2023-06-01T07:22:02;6.20;;;4.00;;
27839;SDS011;15207;42.182;24.308;2023-06-01T07:24:28;4.30;;;3.60;;
27839;SDS011;15207;42.182;24.308;2023-06-01T07:26:55;5.20;;;3.70;;
27839;SDS011;15207;42.182;24.308;2023-06-01T07:29:22;6.30;;;4.15;;
27839;SDS011;15207;42.182;24.308;2023-06-01T07:31:49;5.40;;;3.30;;
27839;SDS011;15207;42.182;24.308;2023-06-01T07:36:42;7.57;;;3.47;;
27839;SDS011;15207;42.182;24.308;2023-06-01T07:39:10;5.20;;;3.60;;
27839;SDS011;15207;42.182;24.308;2023-06-01T07:41:36;6.65;;;3.45;;
27839;SDS011;15207;42.182;24.308;2023-06-01T07:44:04;5.37;;;3.33;;
27839;SDS011;15207;42.182;24.308;2023-06-01T07:46:31;7.00;;;3.75;;
27839;SDS011;15207;42.182;24.308;2023-06-01T07:48:56;5.23;;;3.47;;
27839;SDS011;15207;42.182;24.308;2023-06-01T07:53:48;5.43;;;3.40;;
27839;SDS011;15207;42.182;24.308;2023-06-01T07:56:14;7.20;;;3.90;;
27839;SDS011;15207;42.182;24.308;2023-06-01T07:58:40;8.30;;;3.70;;
27839;SDS011;15207;42.182;24.308;2023-06-01T08:01:05;7.30;;;3.70;;
27839;SDS011;15207;42.182;24.308;2023-06-01T08:03:32;7.00;;;3.80;;
27839;SDS011;15207;42.182;24.308;2023-06-01T08:05:59;5.65;;;3.85;;
27839;SDS011;15207;42.182;24.308;2023-06-01T08:08:27;8.47;;;4.20;;
27839;SDS011;15207;42.182;24.308;2023-06-01T08:10:53;5.95;;;3.90;;
27839;SDS011;15207;42.182;24.308;2023-06-01T08:13:20;6.82;;;3.63;;
27839;SDS011;15207;42.182;24.308;2023-06-01T08:15:45;5.10;;;3.40;;
27839;SDS011;15207;42.182;24.308;2023-06-01T08:18:14;8.50;;;3.40;;
27839;SDS011;15207;42.182;24.308;2023-06-01T08:20:40;6.90;;;3.80;;
27839;SDS011;15207;42.182;24.308;2023-06-01T08:23:07;7.10;;;3.60;;
27839;SDS011;15207;42.182;24.308;2023-06-01T08:25:33;4.65;;;3.00;;
27839;SDS011;15207;42.182;24.308;2023-06-01T08:27:59;6.10;;;3.40;;
27839;SDS011;15207;42.182;24.308;2023-06-01T08:30:25;8.70;;;3.70;;
27839;SDS011;15207;42.182;24.308;2023-06-01T08:32:51;4.00;;;3.10;;
27839;SDS011;15207;42.182;24.308;2023-06-01T08:35:18;5.40;;;3.70;;
27839;SDS011;15207;42.182;24.308;2023-06-01T08:37:44;4.95;;;3.20;;
27839;SDS011;15207;42.182;24.308;2023-06-01T08:40:13;9.05;;;3.30;;
27839;SDS011;15207;42.182;24.308;2023-06-01T08:45:11;12.30;;;4.00;;
27839;SDS011;15207;42.182;24.308;2023-06-01T08:47:40;5.90;;;3.20;;
27839;SDS011;15207;42.182;24.308;2023-06-01T08:50:09;6.25;;;3.50;;
27839;SDS011;15207;42.182;24.308;2023-06-01T08:52:36;4.50;;;3.20;;
27839;SDS011;15207;42.182;24.308;2023-06-01T08:55:04;8.40;;;3.35;;
27839;SDS011;15207;42.182;24.308;2023-06-01T08:57:31;5.90;;;3.50;;
27839;SDS011;15207;42.182;24.308;2023-06-01T09:02:24;4.30;;;2.80;;
27839;SDS011;15207;42.182;24.308;2023-06-01T09:04:50;5.70;;;3.27;;
27839;SDS011;15207;42.182;24.308;2023-06-01T09:07:17;6.00;;;3.10;;
27839;SDS011;15207;42.182;24.308;2023-06-01T09:09:43;7.30;;;3.70;;
27839;SDS011;15207;42.182;24.308;2023-06-01T09:17:36;6.85;;;3.55;;
27839;SDS011;15207;42.182;24.308;2023-06-01T09:20:03;5.45;;;3.10;;
27839;SDS011;15207;42.182;24.308;2023-06-01T09:22:42;4.45;;;2.70;;
27839;SDS011;15207;42.182;24.308;2023-06-01T09:25:10;5.70;;;3.05;;
27839;SDS011;15207;42.182;24.308;2023-06-01T09:27:47;3.75;;;2.60;;
27839;SDS011;15207;42.182;24.308;2023-06-01T09:30:17;7.60;;;2.50;;
27839;SDS011;15207;42.182;24.308;2023-06-01T09:32:47;4.80;;;2.35;;
27839;SDS011;15207;42.182;24.308;2023-06-01T09:38:08;8.10;;;2.40;;
27839;SDS011;15207;42.182;24.308;2023-06-01T09:40:34;3.20;;;2.30;;
27839;SDS011;15207;42.182;24.308;2023-06-01T09:43:00;6.23;;;2.70;;
27839;SDS011;15207;42.182;24.308;2023-06-01T09:45:30;3.20;;;2.20;;
27839;SDS011;15207;42.182;24.308;2023-06-01T09:48:15;3.40;;;2.00;;
27839;SDS011;15207;42.182;24.308;2023-06-01T09:50:43;6.50;;;2.50;;
27839;SDS011;15207;42.182;24.308;2023-06-01T09:53:09;2.80;;;2.03;;
27839;SDS011;15207;42.182;24.308;2023-06-01T09:55:35;5.35;;;2.17;;
27839;SDS011;15207;42.182;24.308;2023-06-01T09:58:20;4.22;;;2.55;;
27839;SDS011;15207;42.182;24.308;2023-06-01T10:00:47;7.57;;;2.80;;
27839;SDS011;15207;42.182;24.308;2023-06-01T10:03:17;6.25;;;2.92;;
27839;SDS011;15207;42.182;24.308;2023-06-01T10:05:44;4.00;;;2.60;;
27839;SDS011;15207;42.182;24.308;2023-06-01T10:08:11;3.95;;;2.65;;
27839;SDS011;15207;42.182;24.308;2023-06-01T10:10:39;8.70;;;3.30;;
27839;SDS011;15207;42.182;24.308;2023-06-01T10:13:07;4.25;;;3.20;;
27839;SDS011;15207;42.182;24.308;2023-06-01T10:15:33;6.07;;;2.90;;
27839;SDS011;15207;42.182;24.308;2023-06-01T10:18:08;4.00;;;2.70;;
27839;SDS011;15207;42.182;24.308;2023-06-01T10:20:35;5.30;;;3.10;;
27839;SDS011;15207;42.182;24.308;2023-06-01T10:23:04;5.63;;;2.60;;
27839;SDS011;15207;42.182;24.308;2023-06-01T10:25:32;4.15;;;2.60;;
27839;SDS011;15207;42.182;24.308;2023-06-01T10:28:04;6.83;;;2.67;;
27839;SDS011;15207;42.182;24.308;2023-06-01T10:30:33;3.97;;;2.67;;
27839;SDS011;15207;42.182;24.308;2023-06-01T10:33:00;3.65;;;2.50;;
27839;SDS011;15207;42.182;24.308;2023-06-01T10:40:43;4.77;;;2.50;;
27839;SDS011;15207;42.182;24.308;2023-06-01T10:46:02;5.63;;;2.67;;
27839;SDS011;15207;42.182;24.308;2023-06-01T10:51:21;6.90;;;2.60;;
27839;SDS011;15207;42.182;24.308;2023-06-01T10:53:49;4.30;;;2.60;;
27839;SDS011;15207;42.182;24.308;2023-06-01T11:01:36;5.90;;;2.50;;
27839;SDS011;15207;42.182;24.308;2023-06-01T11:04:04;4.57;;;2.37;;
27839;SDS011;15207;42.182;24.308;2023-06-01T11:06:31;5.60;;;2.60;;
27839;SDS011;15207;42.182;24.308;2023-06-01T11:09:00;4.70;;;2.80;;
27839;SDS011;15207;42.182;24.308;2023-06-01T11:14:23;7.47;;;2.50;;
27839;SDS011;15207;42.182;24.308;2023-06-01T11:16:54;3.50;;;2.30;;
27839;SDS011;15207;42.182;24.308;2023-06-01T11:21:51;7.53;;;2.45;;
27839;SDS011;15207;42.182;24.308;2023-06-01T11:24:32;4.05;;;2.50;;
27839;SDS011;15207;42.182;24.308;2023-06-01T11:27:01;3.90;;;2.50;;
27839;SDS011;15207;42.182;24.308;2023-06-01T11:29:33;4.97;;;2.60;;
27839;SDS011;15207;42.182;24.308;2023-06-01T11:32:00;4.10;;;2.30;;
27839;SDS011;15207;42.182;24.308;2023-06-01T11:34:36;4.95;;;2.50;;
27839;SDS011;15207;42.182;24.308;2023-06-01T11:37:14;7.40;;;2.50;;
27839;SDS011;15207;42.182;24.308;2023-06-01T11:39:44;2.83;;;2.17;;
27839;SDS011;15207;42.182;24.308;2023-06-01T11:42:15;3.90;;;2.60;;
27839;SDS011;15207;42.182;24.308;2023-06-01T11:44:43;6.90;;;2.70;;
27839;SDS011;15207;42.182;24.308;2023-06-01T11:47:12;5.20;;;2.70;;
27839;SDS011;15207;42.182;24.308;2023-06-01T11:49:48;7.90;;;2.70;;
27839;SDS011;15207;42.182;24.308;2023-06-01T11:52:17;2.85;;;2.13;;
27839;SDS011;15207;42.182;24.308;2023-06-01T11:54:43;7.93;;;3.03;;
27839;SDS011;15207;42.182;24.308;2023-06-01T11:57:09;3.90;;;2.30;;
27839;SDS011;15207;42.182;24.308;2023-06-01T11:59:38;3.80;;;2.40;;
27839;SDS011;15207;42.182;24.308;2023-06-01T12:02:19;5.80;;;2.55;;
27839;SDS011;15207;42.182;24.308;2023-06-01T12:04:59;5.10;;;2.40;;
27839;SDS011;15207;42.182;24.308;2023-06-01T12:10:11;7.00;;;2.63;;
27839;SDS011;15207;42.182;24.308;2023-06-01T12:12:42;3.30;;;2.20;;
27839;SDS011;15207;42.182;24.308;2023-06-01T12:15:09;4.80;;;2.20;;
27839;SDS011;15207;42.182;24.308;2023-06-01T12:17:51;5.77;;;2.67;;
27839;SDS011;15207;42.182;24.308;2023-06-01T12:20:27;8.03;;;3.17;;
27839;SDS011;15207;42.182;24.308;2023-06-01T12:22:58;3.50;;;2.07;;
27839;SDS011;15207;42.182;24.308;2023-06-01T12:25:30;4.07;;;2.40;;
27839;SDS011;15207;42.182;24.308;2023-06-01T12:28:05;3.95;;;2.40;;
27839;SDS011;15207;42.182;24.308;2023-06-01T12:30:33;5.40;;;2.50;;
27839;SDS011;15207;42.182;24.308;2023-06-01T12:33:01;4.00;;;2.90;;
27839;SDS011;15207;42.182;24.308;2023-06-01T12:35:29;4.78;;;2.50;;
27839;SDS011;15207;42.182;24.308;2023-06-01T12:38:08;6.17;;;3.27;;
27839;SDS011;15207;42.182;24.308;2023-06-01T12:40:36;9.25;;;2.75;;
27839;SDS011;15207;42.182;24.308;2023-06-01T12:43:03;4.40;;;2.40;;
27839;SDS011;15207;42.182;24.308;2023-06-01T12:45:39;7.00;;;2.60;;
27839;SDS011;15207;42.182;24.308;2023-06-01T12:48:06;5.00;;;2.70;;
27839;SDS011;15207;42.182;24.308;2023-06-01T12:50:32;8.40;;;2.40;;
27839;SDS011;15207;42.182;24.308;2023-06-01T12:52:58;5.85;;;2.45;;
27839;SDS011;15207;42.182;24.308;2023-06-01T12:55:24;4.40;;;2.70;;
27839;SDS011;15207;42.182;24.308;2023-06-01T12:57:53;5.45;;;2.30;;
27839;SDS011;15207;42.182;24.308;2023-06-01T13:00:21;5.35;;;2.83;;
27839;SDS011;15207;42.182;24.308;2023-06-01T13:02:47;3.80;;;2.28;;
27839;SDS011;15207;42.182;24.308;2023-06-01T13:07:45;6.35;;;3.00;;
27839;SDS011;15207;42.182;24.308;2023-06-01T13:10:11;5.25;;;2.85;;
27839;SDS011;15207;42.182;24.308;2023-06-01T13:12:38;5.15;;;3.05;;
27839;SDS011;15207;42.182;24.308;2023-06-01T13:15:06;4.80;;;2.50;;
27839;SDS011;15207;42.182;24.308;2023-06-01T13:17:32;10.27;;;3.38;;
27839;SDS011;15207;42.182;24.308;2023-06-01T13:19:58;2.80;;;2.05;;
27839;SDS011;15207;42.182;24.308;2023-06-01T13:22:24;5.60;;;2.60;;
27839;SDS011;15207;42.182;24.308;2023-06-01T13:24:50;4.53;;;2.30;;
27839;SDS011;15207;42.182;24.308;2023-06-01T13:27:16;4.40;;;3.00;;
27839;SDS011;15207;42.182;24.308;2023-06-01T13:29:42;6.68;;;2.72;;
27839;SDS011;15207;42.182;24.308;2023-06-01T13:32:08;4.13;;;2.67;;
27839;SDS011;15207;42.182;24.308;2023-06-01T13:34:34;5.60;;;2.40;;
27839;SDS011;15207;42.182;24.308;2023-06-01T13:37:01;6.20;;;2.70;;
27839;SDS011;15207;42.182;24.308;2023-06-01T13:39:26;4.55;;;2.70;;
27839;SDS011;15207;42.182;24.308;2023-06-01T13:46:44;4.00;;;2.70;;
27839;SDS011;15207;42.182;24.308;2023-06-01T13:49:10;10.15;;;3.50;;
27839;SDS011;15207;42.182;24.308;2023-06-01T13:51:36;4.70;;;2.80;;
27839;SDS011;15207;42.182;24.308;2023-06-01T13:54:04;4.05;;;2.25;;
27839;SDS011;15207;42.182;24.308;2023-06-01T13:56:30;3.60;;;2.40;;
27839;SDS011;15207;42.182;24.308;2023-06-01T13:58:56;4.95;;;3.05;;
27839;SDS011;15207;42.182;24.308;2023-06-01T14:01:22;5.30;;;2.60;;
27839;SDS011;15207;42.182;24.308;2023-06-01T14:03:48;5.35;;;2.65;;
27839;SDS011;15207;42.182;24.308;2023-06-01T14:06:13;7.87;;;2.60;;
27839;SDS011;15207;42.182;24.308;2023-06-01T14:08:39;5.20;;;3.05;;
27839;SDS011;15207;42.182;24.308;2023-06-01T14:11:05;7.90;;;3.10;;
27839;SDS011;15207;42.182;24.308;2023-06-01T14:13:31;7.90;;;3.15;;
27839;SDS011;15207;42.182;24.308;2023-06-01T14:15:56;4.30;;;2.50;;
27839;SDS011;15207;42.182;24.308;2023-06-01T14:18:22;4.85;;;2.55;;
27839;SDS011;15207;42.182;24.308;2023-06-01T14:20:48;4.90;;;2.40;;
27839;SDS011;15207;42.182;24.308;2023-06-01T14:23:15;7.35;;;3.30;;
27839;SDS011;15207;42.182;24.308;2023-06-01T14:25:41;5.28;;;2.90;;
27839;SDS011;15207;42.182;24.308;2023-06-01T14:28:06;6.10;;;2.80;;
27839;SDS011;15207;42.182;24.308;2023-06-01T14:30:32;3.70;;;2.40;;
27839;SDS011;15207;42.182;24.308;2023-06-01T14:32:58;4.00;;;2.60;;
27839;SDS011;15207;42.182;24.308;2023-06-01T14:35:23;4.80;;;2.90;;
27839;SDS011;15207;42.182;24.308;2023-06-01T14:37:51;9.70;;;2.80;;
27839;SDS011;15207;42.182;24.308;2023-06-01T14:40:17;4.60;;;3.00;;
27839;SDS011;15207;42.182;24.308;2023-06-01T14:42:43;4.80;;;2.70;;
27839;SDS011;15207;42.182;24.308;2023-06-01T14:45:09;5.60;;;3.10;;
27839;SDS011;15207;42.182;24.308;2023-06-01T14:47:36;4.30;;;2.60;;
27839;SDS011;15207;42.182;24.308;2023-06-01T14:50:02;4.95;;;3.00;;
27839;SDS011;15207;42.182;24.308;2023-06-01T14:52:28;7.05;;;2.65;;
27839;SDS011;15207;42.182;24.308;2023-06-01T14:54:55;4.90;;;2.87;;
27839;SDS011;15207;42.182;24.308;2023-06-01T14:57:20;4.90;;;2.60;;
27839;SDS011;15207;42.182;24.308;2023-06-01T14:59:46;4.60;;;2.60;;
27839;SDS011;15207;42.182;24.308;2023-06-01T15:02:12;4.30;;;2.67;;
27839;SDS011;15207;42.182;24.308;2023-06-01T15:04:37;4.60;;;2.90;;
27839;SDS011;15207;42.182;24.308;2023-06-01T15:07:03;4.50;;;2.55;;
27839;SDS011;15207;42.182;24.308;2023-06-01T15:09:29;3.65;;;2.45;;
27839;SDS011;15207;42.182;24.308;2023-06-01T15:11:55;4.15;;;2.50;;
27839;SDS011;15207;42.182;24.308;2023-06-01T15:14:21;5.10;;;2.90;;
27839;SDS011;15207;42.182;24.308;2023-06-01T15:16:48;5.70;;;2.93;;
27839;SDS011;15207;42.182;24.308;2023-06-01T15:19:14;6.00;;;2.60;;
27839;SDS011;15207;42.182;24.308;2023-06-01T15:21:39;5.10;;;2.90;;
27839;SDS011;15207;42.182;24.308;2023-06-01T15:24:05;4.70;;;2.60;;
27839;SDS011;15207;42.182;24.308;2023-06-01T15:26:31;5.03;;;2.63;;
27839;SDS011;15207;42.182;24.308;2023-06-01T15:28:56;6.05;;;2.80;;
27839;SDS011;15207;42.182;24.308;2023-06-01T15:31:22;7.00;;;3.10;;
27839;SDS011;15207;42.182;24.308;2023-06-01T15:33:48;3.80;;;2.65;;
27839;SDS011;15207;42.182;24.308;2023-06-01T15:36:13;4.30;;;2.90;;
27839;SDS011;15207;42.182;24.308;2023-06-01T15:38:42;5.10;;;2.90;;
27839;SDS011;15207;42.182;24.308;2023-06-01T15:41:08;4.47;;;2.80;;